Soleil Weather Down

Nearby METAR Reports

 

KCNI - Canton/Cherokee, Georgia, USA
Distance from station: ENE 6mi, 10km
Updated: Fri, 03-Apr-2020 9:50pm EDT
Clear
Clear
 Wind from calm
Wind: Calm
Temperature: 64°F , 18°C
Dew Point: 32°F , 0°C
Humidity: 30%
Barometer: 29.98 inHg , 1015.2 hPa
Clouds: Clear
Visibility: 10 miles , 16 km
2020/04/04 01:50 KCNI 040150Z AUTO 00000KT 10SM CLR 18/00 A2998 RMK AO2
KRYY - Marietta Mccolum, Georgia, USA
Distance from station: SSW 18mi, 29km
Updated: Fri, 03-Apr-2020 9:50pm EDT
Clear
Clear
 Wind from calm
Wind: Calm
Temperature: 63°F , 17°C
Dew Point: 41°F , 5°C
Humidity: 45%
Barometer: 29.98 inHg , 1015.2 hPa
Clouds: Clear
Visibility: 10 miles , 16 km
2020/04/04 01:50 KRYY 040150Z 00000KT 10SM CLR 17/05 A2998 RMK AO2 SLP873 T01670050 PNO $
KVPC - Cartersville, Georgia, USA
Distance from station: WSW 22mi, 35km
Updated: Fri, 03-Apr-2020 9:53pm EDT
Clear
Clear
 Wind from SE
Wind: SE 3 mph , 6 km/h
Temperature: 55°F , 13°C
Dew Point: 43°F , 6°C
Humidity: 63%
Barometer: 29.97 inHg , 1014.9 hPa
Clouds: Clear
Visibility: 10 miles , 16 km
2020/04/04 01:53 KVPC 040153Z AUTO 14003KT 10SM CLR 13/06 A2997 RMK AO2 SLP142 T01280061
 
KMGE - Dobbins Afb/Mari, Georgia, USA
Distance from station: S 24mi, 39km
Updated: Fri, 03-Apr-2020 9:56pm EDT
Mostly cloudy
Mostly cloudy
 Wind from NW
Wind: NW 3 mph , 6 km/h
Temperature: 64°F , 18°C
Dew Point: 37°F , 3°C
Humidity: 37%
Barometer: 29.96 inHg , 1014.6 hPa
Clouds: Mostly cloudy
Visibility: 10 miles , 16 km
Cloud details: Mostly cloudy 15000 ft
Mostly cloudy 25000 ft
2020/04/04 01:56 KMGE 040156Z 31003KT 10SM BKN150 BKN250 18/03 A2996 RMK AO2A SLP142 T01770028 $
KPDK - Peachtree/Dekalb, Georgia, USA
Distance from station: SSE 29mi, 47km
Updated: Fri, 03-Apr-2020 9:53pm EDT
Clear
Clear
 Wind from NW
Wind: NW 5 mph , 7 km/h
Temperature: 61°F , 16°C
Dew Point: 39°F , 4°C
Humidity: 45%
Barometer: 29.97 inHg , 1014.9 hPa
Clouds: Clear
Visibility: 10 miles , 16 km
2020/04/04 01:53 KPDK 040153Z 32004KT 10SM CLR 16/04 A2997 RMK AO2 SLP143 T01610039
KFTY - Atlanta/Fulton, Georgia, USA
Distance from station: S 34mi, 54km
Updated: Fri, 03-Apr-2020 9:53pm EDT
Clear
Clear
 Wind from calm
Wind: Calm
Temperature: 61°F , 16°C
Dew Point: 41°F , 5°C
Humidity: 48%
Barometer: 29.96 inHg , 1014.6 hPa
Clouds: Clear
Visibility: 10 miles , 16 km
2020/04/04 01:53 KFTY 040153Z 00000KT 10SM CLR 16/05 A2996 RMK AO2 SLP140 T01610050
 
KPUJ - Atlanta/Paulding, Georgia, USA
Distance from station: SW 34mi, 55km
Updated: Fri, 03-Apr-2020 9:55pm EDT
Clear
Clear
 Wind from NW
Wind: NW 5 mph , 7 km/h
Temperature: 64°F , 18°C
Dew Point: 36°F , 2°C
Humidity: 34%
Barometer: 29.97 inHg , 1014.9 hPa
Clouds: Clear
Visibility: 10 miles , 16 km
2020/04/04 01:55 KPUJ 040155Z AUTO 32004KT 10SM CLR 18/02 A2997 RMK AO2
KDNN - Dalton, Georgia, USA
Distance from station: NW 37mi, 59km
Updated: Fri, 03-Apr-2020 9:55pm EDT
Clear
Clear
 Wind from calm
Wind: Calm
Temperature: 59°F , 15°C
Dew Point: 37°F , 3°C
Humidity: 45%
Barometer: 29.99 inHg , 1015.6 hPa
Clouds: Clear
Visibility: 10 miles , 16 km
2020/04/04 01:55 KDNN 040155Z AUTO 00000KT 10SM CLR 15/03 A2999 RMK AO2
KLZU - Lawrenceville, Georgia, USA
Distance from station: ESE 37mi, 59km
Updated: Fri, 03-Apr-2020 9:56pm EDT
Clear
Clear
 Wind from W
Wind: W 3 mph , 6 km/h
Temperature: 63°F , 17°C
Dew Point: 37°F , 3°C
Humidity: 39%
Barometer: 29.96 inHg , 1014.6 hPa
Clouds: Clear
Visibility: 10 miles , 16 km
2020/04/04 01:56 KLZU 040156Z AUTO 28003KT 10SM CLR 17/03 A2996 RMK AO2 SLP152 T01720028
 
KRMG - Rome, Georgia, USA
Distance from station: W 38mi, 61km
Updated: Fri, 03-Apr-2020 9:53pm EDT
Clear
Clear
 Wind from calm
Wind: Calm
Temperature: 61°F , 16°C
Dew Point: 45°F , 7°C
Humidity: 55%
Barometer: 29.95 inHg , 1014.2 hPa
Clouds: Clear
Visibility: 10 miles , 16 km
2020/04/04 01:53 KRMG 040153Z AUTO 00000KT 10SM CLR 16/07 A2995 RMK AO2 SLP137 T01610067
KGVL - Gainesville, Georgia, USA
Distance from station: E 39mi, 62km
Updated: Fri, 03-Apr-2020 9:53pm EDT
Clear
Clear
 Wind from W
Wind: W 6 mph , 9 km/h
Temperature: 61°F , 16°C
Dew Point: 37°F , 3°C
Humidity: 42%
Barometer: 29.97 inHg , 1014.9 hPa
Clouds: Clear
Visibility: 10 miles , 16 km
2020/04/04 01:53 KGVL 040153Z AUTO 26005KT 10SM CLR 16/03 A2997 RMK AO2 SLP141 T01610028
KATL - Atlanta, Georgia, USA
Distance from station: S 44mi, 71km
Updated: Fri, 03-Apr-2020 9:52pm EDT
Mostly cloudy
Mostly cloudy
 Wind from NNW
Wind: NNW 6 mph , 9 km/h
Temperature: 66°F , 19°C
Dew Point: 36°F , 2°C
Humidity: 32%
Barometer: 29.96 inHg , 1014.6 hPa
Clouds: Mostly cloudy
Visibility: 10 miles , 16 km
Cloud details: Partly cloudy 15000 ft
Mostly cloudy 25000 ft
2020/04/04 01:52 KATL 040152Z 33005KT 10SM SCT150 BKN250 19/02 A2996 RMK AO2 SLP142 T01940022 $